sensor_id;sensor_type;location;lat;lon;timestamp;temperature;humidity
23550;DHT22;11953;49.010;8.608;2023-01-16T00:00:44;6.80;99.90
23550;DHT22;11953;49.010;8.608;2023-01-16T00:03:31;6.80;99.90
23550;DHT22;11953;49.010;8.608;2023-01-16T00:06:18;6.80;99.90
23550;DHT22;11953;49.010;8.608;2023-01-16T00:09:05;6.80;99.90
23550;DHT22;11953;49.010;8.608;2023-01-16T00:11:51;6.80;99.90
23550;DHT22;11953;49.010;8.608;2023-01-16T00:14:38;6.80;99.90
23550;DHT22;11953;49.010;8.608;2023-01-16T00:17:25;6.90;99.90
23550;DHT22;11953;49.010;8.608;2023-01-16T00:20:12;6.80;99.90
23550;DHT22;11953;49.010;8.608;2023-01-16T00:22:59;6.80;99.90
23550;DHT22;11953;49.010;8.608;2023-01-16T00:25:45;6.80;99.90
23550;DHT22;11953;49.010;8.608;2023-01-16T00:28:31;6.80;99.90
23550;DHT22;11953;49.010;8.608;2023-01-16T00:31:18;6.80;99.90
23550;DHT22;11953;49.010;8.608;2023-01-16T00:34:07;6.80;99.90
23550;DHT22;11953;49.010;8.608;2023-01-16T00:36:53;6.80;99.90
23550;DHT22;11953;49.010;8.608;2023-01-16T00:39:40;6.80;99.90
23550;DHT22;11953;49.010;8.608;2023-01-16T00:42:26;6.80;99.90
23550;DHT22;11953;49.010;8.608;2023-01-16T00:45:13;6.80;99.90
23550;DHT22;11953;49.010;8.608;2023-01-16T00:48:00;6.80;99.90
23550;DHT22;11953;49.010;8.608;2023-01-16T00:50:48;6.80;99.90
23550;DHT22;11953;49.010;8.608;2023-01-16T00:53:34;6.80;99.90
23550;DHT22;11953;49.010;8.608;2023-01-16T00:56:21;6.80;99.90
23550;DHT22;11953;49.010;8.608;2023-01-16T00:59:09;6.90;99.90
23550;DHT22;11953;49.010;8.608;2023-01-16T01:01:55;6.90;99.90
23550;DHT22;11953;49.010;8.608;2023-01-16T01:04:43;6.90;99.90
23550;DHT22;11953;49.010;8.608;2023-01-16T01:07:31;6.90;99.90
23550;DHT22;11953;49.010;8.608;2023-01-16T01:10:18;6.80;99.90
23550;DHT22;11953;49.010;8.608;2023-01-16T01:13:05;6.70;99.90
23550;DHT22;11953;49.010;8.608;2023-01-16T01:15:52;6.70;99.90
23550;DHT22;11953;49.010;8.608;2023-01-16T01:18:39;6.80;99.90
23550;DHT22;11953;49.010;8.608;2023-01-16T01:21:25;6.80;99.90
23550;DHT22;11953;49.010;8.608;2023-01-16T01:24:13;6.80;99.90
23550;DHT22;11953;49.010;8.608;2023-01-16T01:27:00;6.80;99.90
23550;DHT22;11953;49.010;8.608;2023-01-16T01:29:46;6.80;99.90
23550;DHT22;11953;49.010;8.608;2023-01-16T01:32:32;6.80;99.90
23550;DHT22;11953;49.010;8.608;2023-01-16T01:35:22;6.90;99.90
23550;DHT22;11953;49.010;8.608;2023-01-16T01:38:08;6.80;99.90
23550;DHT22;11953;49.010;8.608;2023-01-16T01:40:56;6.80;99.90
23550;DHT22;11953;49.010;8.608;2023-01-16T01:43:44;6.90;99.90
23550;DHT22;11953;49.010;8.608;2023-01-16T01:46:37;6.90;99.90
23550;DHT22;11953;49.010;8.608;2023-01-16T01:49:26;6.80;99.90
23550;DHT22;11953;49.010;8.608;2023-01-16T01:52:14;6.80;99.90
23550;DHT22;11953;49.010;8.608;2023-01-16T01:55:03;6.90;99.90
23550;DHT22;11953;49.010;8.608;2023-01-16T01:57:55;6.80;99.90
23550;DHT22;11953;49.010;8.608;2023-01-16T02:00:42;6.80;99.90
23550;DHT22;11953;49.010;8.608;2023-01-16T02:03:32;6.80;99.90
23550;DHT22;11953;49.010;8.608;2023-01-16T02:06:21;6.80;99.90
23550;DHT22;11953;49.010;8.608;2023-01-16T02:09:12;6.60;99.90
23550;DHT22;11953;49.010;8.608;2023-01-16T02:12:02;6.50;99.90
23550;DHT22;11953;49.010;8.608;2023-01-16T02:14:51;6.50;99.90
23550;DHT22;11953;49.010;8.608;2023-01-16T02:17:43;6.40;99.90
23550;DHT22;11953;49.010;8.608;2023-01-16T02:21:05;6.30;99.90
23550;DHT22;11953;49.010;8.608;2023-01-16T02:24:23;6.40;99.90
23550;DHT22;11953;49.010;8.608;2023-01-16T02:27:29;6.40;99.90
23550;DHT22;11953;49.010;8.608;2023-01-16T02:30:34;6.30;99.90
23550;DHT22;11953;49.010;8.608;2023-01-16T02:33:32;6.20;99.90
23550;DHT22;11953;49.010;8.608;2023-01-16T02:36:28;6.30;99.90
23550;DHT22;11953;49.010;8.608;2023-01-16T02:39:25;6.30;99.90
23550;DHT22;11953;49.010;8.608;2023-01-16T02:42:21;6.20;99.90
23550;DHT22;11953;49.010;8.608;2023-01-16T02:45:16;6.20;99.90
23550;DHT22;11953;49.010;8.608;2023-01-16T02:48:08;6.20;99.90
23550;DHT22;11953;49.010;8.608;2023-01-16T02:51:04;6.00;99.90
23550;DHT22;11953;49.010;8.608;2023-01-16T02:53:57;6.00;99.90
23550;DHT22;11953;49.010;8.608;2023-01-16T02:56:48;6.00;99.90
23550;DHT22;11953;49.010;8.608;2023-01-16T02:59:39;5.90;99.90
23550;DHT22;11953;49.010;8.608;2023-01-16T03:02:26;5.90;99.90
23550;DHT22;11953;49.010;8.608;2023-01-16T03:05:13;5.90;99.90
23550;DHT22;11953;49.010;8.608;2023-01-16T03:08:28;5.90;99.90
23550;DHT22;11953;49.010;8.608;2023-01-16T03:11:22;5.80;99.90
23550;DHT22;11953;49.010;8.608;2023-01-16T03:14:25;5.90;99.90
23550;DHT22;11953;49.010;8.608;2023-01-16T03:17:26;5.90;99.90
23550;DHT22;11953;49.010;8.608;2023-01-16T03:20:22;5.80;99.90
23550;DHT22;11953;49.010;8.608;2023-01-16T03:23:14;5.90;99.90
23550;DHT22;11953;49.010;8.608;2023-01-16T03:26:14;5.90;99.90
23550;DHT22;11953;49.010;8.608;2023-01-16T03:29:07;5.80;99.90
23550;DHT22;11953;49.010;8.608;2023-01-16T03:31:57;5.70;99.90
23550;DHT22;11953;49.010;8.608;2023-01-16T03:34:50;5.60;99.90
23550;DHT22;11953;49.010;8.608;2023-01-16T03:37:40;5.70;99.90
23550;DHT22;11953;49.010;8.608;2023-01-16T03:40:31;5.80;99.90
23550;DHT22;11953;49.010;8.608;2023-01-16T03:43:24;5.80;99.90
23550;DHT22;11953;49.010;8.608;2023-01-16T03:46:15;5.80;99.90
23550;DHT22;11953;49.010;8.608;2023-01-16T03:49:06;5.80;99.90
23550;DHT22;11953;49.010;8.608;2023-01-16T03:51:56;5.80;99.90
23550;DHT22;11953;49.010;8.608;2023-01-16T03:54:48;5.80;99.90
23550;DHT22;11953;49.010;8.608;2023-01-16T03:57:37;5.80;99.90
23550;DHT22;11953;49.010;8.608;2023-01-16T04:00:37;5.70;99.90
23550;DHT22;11953;49.010;8.608;2023-01-16T04:03:28;5.70;99.90
23550;DHT22;11953;49.010;8.608;2023-01-16T04:06:18;5.60;99.90
23550;DHT22;11953;49.010;8.608;2023-01-16T04:09:10;5.80;99.90
23550;DHT22;11953;49.010;8.608;2023-01-16T04:11:58;5.70;99.90
23550;DHT22;11953;49.010;8.608;2023-01-16T04:14:48;5.70;99.90
23550;DHT22;11953;49.010;8.608;2023-01-16T04:17:39;5.60;99.90
23550;DHT22;11953;49.010;8.608;2023-01-16T04:20:27;5.50;99.90
23550;DHT22;11953;49.010;8.608;2023-01-16T04:23:15;5.50;99.90
23550;DHT22;11953;49.010;8.608;2023-01-16T04:26:02;5.40;99.90
23550;DHT22;11953;49.010;8.608;2023-01-16T04:28:48;5.40;99.90
23550;DHT22;11953;49.010;8.608;2023-01-16T04:31:38;5.30;99.90
23550;DHT22;11953;49.010;8.608;2023-01-16T04:34:26;5.30;99.90
23550;DHT22;11953;49.010;8.608;2023-01-16T04:37:12;5.30;99.90
23550;DHT22;11953;49.010;8.608;2023-01-16T04:39:59;5.20;99.90
23550;DHT22;11953;49.010;8.608;2023-01-16T04:42:46;5.20;99.90
23550;DHT22;11953;49.010;8.608;2023-01-16T04:45:33;5.10;99.90
23550;DHT22;11953;49.010;8.608;2023-01-16T04:48:20;5.10;99.90
23550;DHT22;11953;49.010;8.608;2023-01-16T04:51:07;5.10;99.90
23550;DHT22;11953;49.010;8.608;2023-01-16T04:53:54;5.10;99.90
23550;DHT22;11953;49.010;8.608;2023-01-16T04:56:41;5.10;99.90
23550;DHT22;11953;49.010;8.608;2023-01-16T04:59:28;5.10;99.90
23550;DHT22;11953;49.010;8.608;2023-01-16T05:02:14;5.00;99.90
23550;DHT22;11953;49.010;8.608;2023-01-16T05:05:01;5.00;99.90
23550;DHT22;11953;49.010;8.608;2023-01-16T05:07:49;5.00;99.90
23550;DHT22;11953;49.010;8.608;2023-01-16T05:10:56;5.00;99.90
23550;DHT22;11953;49.010;8.608;2023-01-16T05:13:46;5.00;99.90
23550;DHT22;11953;49.010;8.608;2023-01-16T05:16:32;5.00;99.90
23550;DHT22;11953;49.010;8.608;2023-01-16T05:19:19;5.00;99.90
23550;DHT22;11953;49.010;8.608;2023-01-16T05:22:06;5.00;99.90
23550;DHT22;11953;49.010;8.608;2023-01-16T05:24:53;5.00;99.90
23550;DHT22;11953;49.010;8.608;2023-01-16T05:27:40;4.90;99.90
23550;DHT22;11953;49.010;8.608;2023-01-16T05:30:26;4.90;99.90
23550;DHT22;11953;49.010;8.608;2023-01-16T05:33:12;4.90;99.90
23550;DHT22;11953;49.010;8.608;2023-01-16T05:35:59;4.90;99.90
23550;DHT22;11953;49.010;8.608;2023-01-16T05:38:46;4.80;99.90
23550;DHT22;11953;49.010;8.608;2023-01-16T05:41:33;4.80;99.90
23550;DHT22;11953;49.010;8.608;2023-01-16T05:44:20;4.80;99.90
23550;DHT22;11953;49.010;8.608;2023-01-16T05:47:07;4.80;99.90
23550;DHT22;11953;49.010;8.608;2023-01-16T05:49:53;4.90;99.90
23550;DHT22;11953;49.010;8.608;2023-01-16T05:52:43;4.90;99.90
23550;DHT22;11953;49.010;8.608;2023-01-16T05:55:30;4.90;99.90
23550;DHT22;11953;49.010;8.608;2023-01-16T05:58:18;4.90;99.90
23550;DHT22;11953;49.010;8.608;2023-01-16T06:01:05;4.90;99.90
23550;DHT22;11953;49.010;8.608;2023-01-16T06:03:52;4.90;99.90
23550;DHT22;11953;49.010;8.608;2023-01-16T06:06:39;4.90;99.90
23550;DHT22;11953;49.010;8.608;2023-01-16T06:09:26;4.90;99.90
23550;DHT22;11953;49.010;8.608;2023-01-16T06:12:14;4.80;99.90
23550;DHT22;11953;49.010;8.608;2023-01-16T06:15:03;4.60;99.90
23550;DHT22;11953;49.010;8.608;2023-01-16T06:17:50;4.60;99.90
23550;DHT22;11953;49.010;8.608;2023-01-16T06:20:39;4.60;99.90
23550;DHT22;11953;49.010;8.608;2023-01-16T06:23:26;4.60;99.90
23550;DHT22;11953;49.010;8.608;2023-01-16T06:26:12;4.60;99.90
23550;DHT22;11953;49.010;8.608;2023-01-16T06:28:59;4.50;99.90
23550;DHT22;11953;49.010;8.608;2023-01-16T06:31:50;4.60;99.90
23550;DHT22;11953;49.010;8.608;2023-01-16T06:34:37;4.50;99.90
23550;DHT22;11953;49.010;8.608;2023-01-16T06:37:24;4.50;99.90
23550;DHT22;11953;49.010;8.608;2023-01-16T06:40:11;4.40;99.90
23550;DHT22;11953;49.010;8.608;2023-01-16T06:42:57;4.30;99.90
23550;DHT22;11953;49.010;8.608;2023-01-16T06:45:44;4.20;99.90
23550;DHT22;11953;49.010;8.608;2023-01-16T06:48:32;4.20;99.90
23550;DHT22;11953;49.010;8.608;2023-01-16T06:51:20;4.20;99.90
23550;DHT22;11953;49.010;8.608;2023-01-16T06:54:07;4.10;99.90
23550;DHT22;11953;49.010;8.608;2023-01-16T06:56:54;4.10;99.90
23550;DHT22;11953;49.010;8.608;2023-01-16T06:59:40;4.10;99.90
23550;DHT22;11953;49.010;8.608;2023-01-16T07:02:27;4.10;99.90
23550;DHT22;11953;49.010;8.608;2023-01-16T07:05:15;4.10;99.90
23550;DHT22;11953;49.010;8.608;2023-01-16T07:08:01;4.10;99.90
23550;DHT22;11953;49.010;8.608;2023-01-16T07:10:48;4.10;99.90
23550;DHT22;11953;49.010;8.608;2023-01-16T07:13:35;4.10;99.90
23550;DHT22;11953;49.010;8.608;2023-01-16T07:16:21;4.10;99.90
23550;DHT22;11953;49.010;8.608;2023-01-16T07:19:25;4.10;99.90
23550;DHT22;11953;49.010;8.608;2023-01-16T07:22:31;4.20;99.90
23550;DHT22;11953;49.010;8.608;2023-01-16T07:25:32;4.20;99.90
23550;DHT22;11953;49.010;8.608;2023-01-16T07:28:20;4.30;99.90
23550;DHT22;11953;49.010;8.608;2023-01-16T07:31:07;4.30;99.90
23550;DHT22;11953;49.010;8.608;2023-01-16T07:33:54;4.40;99.90
23550;DHT22;11953;49.010;8.608;2023-01-16T07:36:41;4.30;99.90
23550;DHT22;11953;49.010;8.608;2023-01-16T07:39:29;4.30;99.90
23550;DHT22;11953;49.010;8.608;2023-01-16T07:42:15;4.30;99.90
23550;DHT22;11953;49.010;8.608;2023-01-16T07:45:02;4.30;99.90
23550;DHT22;11953;49.010;8.608;2023-01-16T07:47:49;4.30;99.90
23550;DHT22;11953;49.010;8.608;2023-01-16T07:50:36;4.30;99.90
23550;DHT22;11953;49.010;8.608;2023-01-16T07:53:24;4.30;99.90
23550;DHT22;11953;49.010;8.608;2023-01-16T07:56:12;4.40;99.90
23550;DHT22;11953;49.010;8.608;2023-01-16T07:58:59;4.30;99.90
23550;DHT22;11953;49.010;8.608;2023-01-16T08:01:46;4.40;99.90
23550;DHT22;11953;49.010;8.608;2023-01-16T08:04:33;4.40;99.90
23550;DHT22;11953;49.010;8.608;2023-01-16T08:07:20;4.50;99.90
23550;DHT22;11953;49.010;8.608;2023-01-16T08:10:07;4.50;99.90
23550;DHT22;11953;49.010;8.608;2023-01-16T08:12:55;4.50;99.90
23550;DHT22;11953;49.010;8.608;2023-01-16T08:15:41;4.60;99.90
23550;DHT22;11953;49.010;8.608;2023-01-16T08:18:28;4.60;99.90
23550;DHT22;11953;49.010;8.608;2023-01-16T08:21:15;4.70;99.90
23550;DHT22;11953;49.010;8.608;2023-01-16T08:24:02;4.80;99.90
23550;DHT22;11953;49.010;8.608;2023-01-16T08:26:49;4.80;99.90
23550;DHT22;11953;49.010;8.608;2023-01-16T08:29:37;4.80;99.90
23550;DHT22;11953;49.010;8.608;2023-01-16T08:32:24;4.80;99.90
23550;DHT22;11953;49.010;8.608;2023-01-16T08:35:11;4.90;99.90
23550;DHT22;11953;49.010;8.608;2023-01-16T08:37:57;5.00;99.90
23550;DHT22;11953;49.010;8.608;2023-01-16T08:40:45;5.00;99.90
23550;DHT22;11953;49.010;8.608;2023-01-16T08:43:31;5.00;99.90
23550;DHT22;11953;49.010;8.608;2023-01-16T08:46:37;5.00;99.90
23550;DHT22;11953;49.010;8.608;2023-01-16T08:49:41;5.10;99.90
23550;DHT22;11953;49.010;8.608;2023-01-16T08:52:46;5.10;99.90
23550;DHT22;11953;49.010;8.608;2023-01-16T08:55:33;5.20;99.90
23550;DHT22;11953;49.010;8.608;2023-01-16T08:58:20;5.30;99.90
23550;DHT22;11953;49.010;8.608;2023-01-16T09:01:07;5.40;99.90
23550;DHT22;11953;49.010;8.608;2023-01-16T09:03:55;5.40;99.90
23550;DHT22;11953;49.010;8.608;2023-01-16T09:06:42;5.40;99.90
23550;DHT22;11953;49.010;8.608;2023-01-16T09:09:28;5.40;99.90
23550;DHT22;11953;49.010;8.608;2023-01-16T09:12:15;5.40;99.90
23550;DHT22;11953;49.010;8.608;2023-01-16T09:15:19;5.40;99.90
23550;DHT22;11953;49.010;8.608;2023-01-16T09:18:06;5.40;99.90
23550;DHT22;11953;49.010;8.608;2023-01-16T09:20:54;5.40;99.90
23550;DHT22;11953;49.010;8.608;2023-01-16T09:23:40;5.40;99.90
23550;DHT22;11953;49.010;8.608;2023-01-16T09:26:27;5.50;99.90
23550;DHT22;11953;49.010;8.608;2023-01-16T09:29:13;5.60;99.90
23550;DHT22;11953;49.010;8.608;2023-01-16T09:32:00;5.70;99.90
23550;DHT22;11953;49.010;8.608;2023-01-16T09:34:52;5.70;99.90
23550;DHT22;11953;49.010;8.608;2023-01-16T09:37:42;5.60;99.90
23550;DHT22;11953;49.010;8.608;2023-01-16T09:40:29;5.60;99.90
23550;DHT22;11953;49.010;8.608;2023-01-16T09:43:31;5.60;99.90
23550;DHT22;11953;49.010;8.608;2023-01-16T09:46:26;5.60;99.90
23550;DHT22;11953;49.010;8.608;2023-01-16T09:49:19;5.50;99.90
23550;DHT22;11953;49.010;8.608;2023-01-16T09:52:11;5.50;99.90
23550;DHT22;11953;49.010;8.608;2023-01-16T09:55:21;5.40;99.90
23550;DHT22;11953;49.010;8.608;2023-01-16T09:58:47;5.50;99.90
23550;DHT22;11953;49.010;8.608;2023-01-16T10:01:38;5.50;99.90
23550;DHT22;11953;49.010;8.608;2023-01-16T10:04:28;5.70;99.90
23550;DHT22;11953;49.010;8.608;2023-01-16T10:10:42;5.90;99.90
23550;DHT22;11953;49.010;8.608;2023-01-16T10:13:57;5.90;99.90
23550;DHT22;11953;49.010;8.608;2023-01-16T10:16:54;6.00;99.90
23550;DHT22;11953;49.010;8.608;2023-01-16T10:19:52;6.00;99.90
23550;DHT22;11953;49.010;8.608;2023-01-16T10:22:50;6.00;99.90
23550;DHT22;11953;49.010;8.608;2023-01-16T10:25:46;6.00;99.90
23550;DHT22;11953;49.010;8.608;2023-01-16T10:28:46;6.00;99.90
23550;DHT22;11953;49.010;8.608;2023-01-16T10:31:40;6.10;99.90
23550;DHT22;11953;49.010;8.608;2023-01-16T10:34:30;6.20;99.90
23550;DHT22;11953;49.010;8.608;2023-01-16T10:37:18;6.20;99.90
23550;DHT22;11953;49.010;8.608;2023-01-16T10:40:13;6.20;99.90
23550;DHT22;11953;49.010;8.608;2023-01-16T10:43:03;6.20;99.90
23550;DHT22;11953;49.010;8.608;2023-01-16T10:46:13;6.20;99.90
23550;DHT22;11953;49.010;8.608;2023-01-16T10:49:34;6.30;99.90
23550;DHT22;11953;49.010;8.608;2023-01-16T10:52:21;6.30;99.90
23550;DHT22;11953;49.010;8.608;2023-01-16T10:55:10;6.40;99.90
23550;DHT22;11953;49.010;8.608;2023-01-16T10:58:00;6.40;99.90
23550;DHT22;11953;49.010;8.608;2023-01-16T11:00:50;6.50;99.90
23550;DHT22;11953;49.010;8.608;2023-01-16T11:03:40;6.50;99.90
23550;DHT22;11953;49.010;8.608;2023-01-16T11:06:28;6.50;99.90
23550;DHT22;11953;49.010;8.608;2023-01-16T11:09:18;6.60;99.90
23550;DHT22;11953;49.010;8.608;2023-01-16T11:12:08;6.60;99.90
23550;DHT22;11953;49.010;8.608;2023-01-16T11:15:16;6.50;99.90
23550;DHT22;11953;49.010;8.608;2023-01-16T11:18:27;6.50;99.90
23550;DHT22;11953;49.010;8.608;2023-01-16T11:21:17;6.50;99.90
23550;DHT22;11953;49.010;8.608;2023-01-16T11:24:15;6.50;99.90
23550;DHT22;11953;49.010;8.608;2023-01-16T11:27:06;6.60;99.90
23550;DHT22;11953;49.010;8.608;2023-01-16T11:29:55;6.50;99.90
23550;DHT22;11953;49.010;8.608;2023-01-16T11:32:43;6.40;99.90
23550;DHT22;11953;49.010;8.608;2023-01-16T11:35:36;6.40;99.90
23550;DHT22;11953;49.010;8.608;2023-01-16T11:38:24;6.50;99.90
23550;DHT22;11953;49.010;8.608;2023-01-16T11:41:11;6.40;99.90
23550;DHT22;11953;49.010;8.608;2023-01-16T11:44:17;6.50;99.90
23550;DHT22;11953;49.010;8.608;2023-01-16T11:47:23;6.70;99.90
23550;DHT22;11953;49.010;8.608;2023-01-16T11:50:25;6.70;99.90
23550;DHT22;11953;49.010;8.608;2023-01-16T11:53:13;6.60;99.90
23550;DHT22;11953;49.010;8.608;2023-01-16T11:56:19;6.70;99.90
23550;DHT22;11953;49.010;8.608;2023-01-16T11:59:20;6.70;99.90
23550;DHT22;11953;49.010;8.608;2023-01-16T12:02:27;6.80;99.90
23550;DHT22;11953;49.010;8.608;2023-01-16T12:05:24;6.90;99.90
23550;DHT22;11953;49.010;8.608;2023-01-16T12:08:41;6.90;99.90
23550;DHT22;11953;49.010;8.608;2023-01-16T12:11:52;6.80;99.90
23550;DHT22;11953;49.010;8.608;2023-01-16T12:14:46;6.80;99.90
23550;DHT22;11953;49.010;8.608;2023-01-16T12:18:02;6.80;99.90
23550;DHT22;11953;49.010;8.608;2023-01-16T12:20:55;6.80;99.90
23550;DHT22;11953;49.010;8.608;2023-01-16T12:24:09;6.80;99.90
23550;DHT22;11953;49.010;8.608;2023-01-16T12:27:13;6.80;99.90
23550;DHT22;11953;49.010;8.608;2023-01-16T12:30:09;6.70;99.90
23550;DHT22;11953;49.010;8.608;2023-01-16T12:33:08;6.60;99.90
23550;DHT22;11953;49.010;8.608;2023-01-16T12:36:07;6.60;99.90
23550;DHT22;11953;49.010;8.608;2023-01-16T12:39:15;6.60;99.90
23550;DHT22;11953;49.010;8.608;2023-01-16T12:42:05;6.60;99.90
23550;DHT22;11953;49.010;8.608;2023-01-16T12:45:25;6.50;99.90
23550;DHT22;11953;49.010;8.608;2023-01-16T12:48:42;6.50;99.90
23550;DHT22;11953;49.010;8.608;2023-01-16T12:51:41;6.60;99.90
23550;DHT22;11953;49.010;8.608;2023-01-16T12:54:53;6.60;99.90
23550;DHT22;11953;49.010;8.608;2023-01-16T12:57:53;6.70;99.90
23550;DHT22;11953;49.010;8.608;2023-01-16T13:00:45;6.80;99.90
23550;DHT22;11953;49.010;8.608;2023-01-16T13:03:36;6.70;99.90
23550;DHT22;11953;49.010;8.608;2023-01-16T13:06:32;6.80;99.90
23550;DHT22;11953;49.010;8.608;2023-01-16T13:09:21;7.10;99.90
23550;DHT22;11953;49.010;8.608;2023-01-16T13:12:17;7.10;99.90
23550;DHT22;11953;49.010;8.608;2023-01-16T13:15:26;7.10;99.90
23550;DHT22;11953;49.010;8.608;2023-01-16T13:18:18;7.10;99.90
23550;DHT22;11953;49.010;8.608;2023-01-16T13:21:10;7.20;99.90
23550;DHT22;11953;49.010;8.608;2023-01-16T13:24:04;7.20;99.90
23550;DHT22;11953;49.010;8.608;2023-01-16T13:27:01;7.20;99.90
23550;DHT22;11953;49.010;8.608;2023-01-16T13:29:53;7.20;99.90
23550;DHT22;11953;49.010;8.608;2023-01-16T13:32:43;7.20;99.90
23550;DHT22;11953;49.010;8.608;2023-01-16T13:35:36;7.20;99.90
23550;DHT22;11953;49.010;8.608;2023-01-16T13:38:36;7.10;99.90
23550;DHT22;11953;49.010;8.608;2023-01-16T13:41:30;7.00;99.90
23550;DHT22;11953;49.010;8.608;2023-01-16T13:44:22;7.00;99.90
23550;DHT22;11953;49.010;8.608;2023-01-16T13:47:31;7.10;99.90
23550;DHT22;11953;49.010;8.608;2023-01-16T13:50:23;7.10;99.90
23550;DHT22;11953;49.010;8.608;2023-01-16T13:53:13;7.10;99.90
23550;DHT22;11953;49.010;8.608;2023-01-16T13:56:04;7.20;99.90
23550;DHT22;11953;49.010;8.608;2023-01-16T13:58:56;7.30;99.90
23550;DHT22;11953;49.010;8.608;2023-01-16T14:01:55;7.40;99.90
23550;DHT22;11953;49.010;8.608;2023-01-16T14:05:23;7.50;99.90
23550;DHT22;11953;49.010;8.608;2023-01-16T14:11:59;7.80;99.90
23550;DHT22;11953;49.010;8.608;2023-01-16T14:14:47;7.90;99.90
23550;DHT22;11953;49.010;8.608;2023-01-16T14:18:17;7.70;99.90
23550;DHT22;11953;49.010;8.608;2023-01-16T14:21:17;7.60;99.90
23550;DHT22;11953;49.010;8.608;2023-01-16T14:24:10;7.50;99.90
23550;DHT22;11953;49.010;8.608;2023-01-16T14:26:58;7.40;99.90
23550;DHT22;11953;49.010;8.608;2023-01-16T14:29:48;7.40;99.90
23550;DHT22;11953;49.010;8.608;2023-01-16T14:32:37;7.40;99.90
23550;DHT22;11953;49.010;8.608;2023-01-16T14:35:31;7.40;99.90
23550;DHT22;11953;49.010;8.608;2023-01-16T14:38:30;7.30;99.90
23550;DHT22;11953;49.010;8.608;2023-01-16T14:41:26;7.30;99.90
23550;DHT22;11953;49.010;8.608;2023-01-16T14:44:30;7.30;99.90
23550;DHT22;11953;49.010;8.608;2023-01-16T14:47:45;7.30;99.90
23550;DHT22;11953;49.010;8.608;2023-01-16T14:50:51;7.30;99.90
23550;DHT22;11953;49.010;8.608;2023-01-16T14:54:02;7.30;99.90
23550;DHT22;11953;49.010;8.608;2023-01-16T14:57:11;7.30;99.90
23550;DHT22;11953;49.010;8.608;2023-01-16T15:00:04;7.40;99.90
23550;DHT22;11953;49.010;8.608;2023-01-16T15:02:57;7.40;99.90
23550;DHT22;11953;49.010;8.608;2023-01-16T15:05:46;7.40;99.90
23550;DHT22;11953;49.010;8.608;2023-01-16T15:08:40;7.40;99.90
23550;DHT22;11953;49.010;8.608;2023-01-16T15:11:31;7.40;99.90
23550;DHT22;11953;49.010;8.608;2023-01-16T15:14:20;7.50;99.90
23550;DHT22;11953;49.010;8.608;2023-01-16T15:17:17;7.50;99.90
23550;DHT22;11953;49.010;8.608;2023-01-16T15:20:24;7.50;99.90
23550;DHT22;11953;49.010;8.608;2023-01-16T15:23:31;7.50;99.90
23550;DHT22;11953;49.010;8.608;2023-01-16T15:26:40;7.40;99.90
23550;DHT22;11953;49.010;8.608;2023-01-16T15:29:48;7.40;99.90
23550;DHT22;11953;49.010;8.608;2023-01-16T15:32:52;7.40;99.90
23550;DHT22;11953;49.010;8.608;2023-01-16T15:35:39;7.40;99.90
23550;DHT22;11953;49.010;8.608;2023-01-16T15:38:26;7.40;99.90
23550;DHT22;11953;49.010;8.608;2023-01-16T15:41:13;7.40;99.90
23550;DHT22;11953;49.010;8.608;2023-01-16T15:44:01;7.40;99.90
23550;DHT22;11953;49.010;8.608;2023-01-16T15:47:17;7.40;99.90
23550;DHT22;11953;49.010;8.608;2023-01-16T15:50:23;7.40;99.90
23550;DHT22;11953;49.010;8.608;2023-01-16T15:53:11;7.40;99.90
23550;DHT22;11953;49.010;8.608;2023-01-16T15:56:01;7.40;99.90
23550;DHT22;11953;49.010;8.608;2023-01-16T15:58:50;7.40;99.90
23550;DHT22;11953;49.010;8.608;2023-01-16T16:01:41;7.30;99.90
23550;DHT22;11953;49.010;8.608;2023-01-16T16:04:29;7.30;99.90
23550;DHT22;11953;49.010;8.608;2023-01-16T16:07:16;7.20;99.90
23550;DHT22;11953;49.010;8.608;2023-01-16T16:10:03;7.20;99.90
23550;DHT22;11953;49.010;8.608;2023-01-16T16:12:50;7.20;99.90
23550;DHT22;11953;49.010;8.608;2023-01-16T16:15:36;7.10;99.90
23550;DHT22;11953;49.010;8.608;2023-01-16T16:18:51;7.00;99.90
23550;DHT22;11953;49.010;8.608;2023-01-16T16:21:42;7.00;99.90
23550;DHT22;11953;49.010;8.608;2023-01-16T16:24:52;6.90;99.90
23550;DHT22;11953;49.010;8.608;2023-01-16T16:27:41;6.80;99.90
23550;DHT22;11953;49.010;8.608;2023-01-16T16:30:28;6.70;99.90
23550;DHT22;11953;49.010;8.608;2023-01-16T16:33:16;6.70;99.90
23550;DHT22;11953;49.010;8.608;2023-01-16T16:36:05;6.60;99.90
23550;DHT22;11953;49.010;8.608;2023-01-16T16:38:53;6.60;99.90
23550;DHT22;11953;49.010;8.608;2023-01-16T16:41:46;6.50;99.90
23550;DHT22;11953;49.010;8.608;2023-01-16T16:45:09;6.50;99.90
23550;DHT22;11953;49.010;8.608;2023-01-16T16:48:20;6.50;99.90
23550;DHT22;11953;49.010;8.608;2023-01-16T16:51:19;6.50;99.90
23550;DHT22;11953;49.010;8.608;2023-01-16T16:54:09;6.30;99.90
23550;DHT22;11953;49.010;8.608;2023-01-16T16:56:58;6.30;99.90
23550;DHT22;11953;49.010;8.608;2023-01-16T16:59:46;6.30;99.90
23550;DHT22;11953;49.010;8.608;2023-01-16T17:02:34;6.40;99.90
23550;DHT22;11953;49.010;8.608;2023-01-16T17:05:20;6.30;99.90
23550;DHT22;11953;49.010;8.608;2023-01-16T17:08:12;6.30;99.90
23550;DHT22;11953;49.010;8.608;2023-01-16T17:11:00;6.30;99.90
23550;DHT22;11953;49.010;8.608;2023-01-16T17:13:47;6.20;99.90
23550;DHT22;11953;49.010;8.608;2023-01-16T17:16:34;6.10;99.90
23550;DHT22;11953;49.010;8.608;2023-01-16T17:19:25;6.10;99.90
23550;DHT22;11953;49.010;8.608;2023-01-16T17:22:14;6.00;99.90
23550;DHT22;11953;49.010;8.608;2023-01-16T17:25:04;6.00;99.90
23550;DHT22;11953;49.010;8.608;2023-01-16T17:27:52;6.00;99.90
23550;DHT22;11953;49.010;8.608;2023-01-16T17:30:40;5.90;99.90
23550;DHT22;11953;49.010;8.608;2023-01-16T17:33:27;5.80;99.90
23550;DHT22;11953;49.010;8.608;2023-01-16T17:36:19;5.70;99.90
23550;DHT22;11953;49.010;8.608;2023-01-16T17:39:07;5.70;99.90
23550;DHT22;11953;49.010;8.608;2023-01-16T17:41:54;5.60;99.90
23550;DHT22;11953;49.010;8.608;2023-01-16T17:44:59;5.60;99.90
23550;DHT22;11953;49.010;8.608;2023-01-16T17:48:04;5.50;99.90
23550;DHT22;11953;49.010;8.608;2023-01-16T17:50:50;5.50;99.90
23550;DHT22;11953;49.010;8.608;2023-01-16T17:53:37;5.50;99.90
23550;DHT22;11953;49.010;8.608;2023-01-16T17:56:24;5.50;99.90
23550;DHT22;11953;49.010;8.608;2023-01-16T17:59:12;5.50;99.90
23550;DHT22;11953;49.010;8.608;2023-01-16T18:01:58;5.50;99.90
23550;DHT22;11953;49.010;8.608;2023-01-16T18:04:45;5.50;99.90
23550;DHT22;11953;49.010;8.608;2023-01-16T18:07:32;5.40;99.90
23550;DHT22;11953;49.010;8.608;2023-01-16T18:10:19;5.40;99.90
23550;DHT22;11953;49.010;8.608;2023-01-16T18:13:06;5.40;99.90
23550;DHT22;11953;49.010;8.608;2023-01-16T18:16:14;5.40;99.90
23550;DHT22;11953;49.010;8.608;2023-01-16T18:19:18;5.40;99.90
23550;DHT22;11953;49.010;8.608;2023-01-16T18:22:04;5.40;99.90
23550;DHT22;11953;49.010;8.608;2023-01-16T18:24:54;5.40;99.90
23550;DHT22;11953;49.010;8.608;2023-01-16T18:27:41;5.40;99.90
23550;DHT22;11953;49.010;8.608;2023-01-16T18:30:28;5.30;99.90
23550;DHT22;11953;49.010;8.608;2023-01-16T18:33:16;5.30;99.90